sensor_id;sensor_type;location;lat;lon;timestamp;temperature;humidity
17891;DHT22;9071;48.220;14.480;2023-06-01T00:03:00;13.40;99.90
17891;DHT22;9071;48.220;14.480;2023-06-01T00:08:02;13.30;99.90
17891;DHT22;9071;48.220;14.480;2023-06-01T00:13:06;13.20;99.90
17891;DHT22;9071;48.220;14.480;2023-06-01T00:18:08;13.10;99.90
17891;DHT22;9071;48.220;14.480;2023-06-01T00:23:13;13.10;99.90
17891;DHT22;9071;48.220;14.480;2023-06-01T00:28:18;13.20;99.90
17891;DHT22;9071;48.220;14.480;2023-06-01T00:33:20;13.20;99.90
17891;DHT22;9071;48.220;14.480;2023-06-01T00:38:22;13.10;99.90
17891;DHT22;9071;48.220;14.480;2023-06-01T00:43:26;13.00;99.90
17891;DHT22;9071;48.220;14.480;2023-06-01T00:48:28;12.90;99.90
17891;DHT22;9071;48.220;14.480;2023-06-01T00:53:30;12.80;99.90
17891;DHT22;9071;48.220;14.480;2023-06-01T00:58:34;12.70;99.90
17891;DHT22;9071;48.220;14.480;2023-06-01T01:03:36;12.60;99.90
17891;DHT22;9071;48.220;14.480;2023-06-01T01:08:47;12.60;99.90
17891;DHT22;9071;48.220;14.480;2023-06-01T01:13:58;12.60;99.90
17891;DHT22;9071;48.220;14.480;2023-06-01T01:19:09;12.60;99.90
17891;DHT22;9071;48.220;14.480;2023-06-01T01:24:26;12.40;99.90
17891;DHT22;9071;48.220;14.480;2023-06-01T01:29:37;12.30;99.90
17891;DHT22;9071;48.220;14.480;2023-06-01T01:34:43;12.20;99.90
17891;DHT22;9071;48.220;14.480;2023-06-01T01:39:46;12.40;99.90
17891;DHT22;9071;48.220;14.480;2023-06-01T01:44:49;12.40;99.90
17891;DHT22;9071;48.220;14.480;2023-06-01T01:49:55;12.30;99.90
17891;DHT22;9071;48.220;14.480;2023-06-01T01:54:59;12.20;99.90
17891;DHT22;9071;48.220;14.480;2023-06-01T02:00:07;12.20;99.90
17891;DHT22;9071;48.220;14.480;2023-06-01T02:05:09;12.10;99.90
17891;DHT22;9071;48.220;14.480;2023-06-01T02:10:11;12.00;99.90
17891;DHT22;9071;48.220;14.480;2023-06-01T02:15:15;11.80;99.90
17891;DHT22;9071;48.220;14.480;2023-06-01T02:20:17;11.80;99.90
17891;DHT22;9071;48.220;14.480;2023-06-01T02:25:19;11.80;99.90
17891;DHT22;9071;48.220;14.480;2023-06-01T02:30:23;11.90;99.90
17891;DHT22;9071;48.220;14.480;2023-06-01T02:35:25;12.00;99.90
17891;DHT22;9071;48.220;14.480;2023-06-01T02:40:27;11.90;99.90
17891;DHT22;9071;48.220;14.480;2023-06-01T02:45:30;11.90;99.90
17891;DHT22;9071;48.220;14.480;2023-06-01T02:50:32;11.80;99.90
17891;DHT22;9071;48.220;14.480;2023-06-01T02:55:34;11.80;99.90
17891;DHT22;9071;48.220;14.480;2023-06-01T03:00:38;11.80;99.90
17891;DHT22;9071;48.220;14.480;2023-06-01T03:05:40;11.70;99.90
17891;DHT22;9071;48.220;14.480;2023-06-01T03:10:43;11.70;99.90
17891;DHT22;9071;48.220;14.480;2023-06-01T03:15:47;11.70;99.90
17891;DHT22;9071;48.220;14.480;2023-06-01T03:20:50;11.70;99.90
17891;DHT22;9071;48.220;14.480;2023-06-01T03:25:53;11.60;99.90
17891;DHT22;9071;48.220;14.480;2023-06-01T03:30:57;11.50;99.90
17891;DHT22;9071;48.220;14.480;2023-06-01T03:36:00;11.50;99.90
17891;DHT22;9071;48.220;14.480;2023-06-01T03:41:02;11.60;99.90
17891;DHT22;9071;48.220;14.480;2023-06-01T03:46:05;11.70;99.90
17891;DHT22;9071;48.220;14.480;2023-06-01T03:51:08;11.90;99.90
17891;DHT22;9071;48.220;14.480;2023-06-01T03:56:10;12.00;99.90
17891;DHT22;9071;48.220;14.480;2023-06-01T04:01:13;12.20;99.90
17891;DHT22;9071;48.220;14.480;2023-06-01T04:06:17;12.40;99.90
17891;DHT22;9071;48.220;14.480;2023-06-01T04:11:19;12.50;99.90
17891;DHT22;9071;48.220;14.480;2023-06-01T04:16:24;12.60;99.90
17891;DHT22;9071;48.220;14.480;2023-06-01T04:21:26;12.80;99.90
17891;DHT22;9071;48.220;14.480;2023-06-01T04:26:28;13.10;99.90
17891;DHT22;9071;48.220;14.480;2023-06-01T04:31:33;13.30;99.90
17891;DHT22;9071;48.220;14.480;2023-06-01T04:36:36;13.50;99.90
17891;DHT22;9071;48.220;14.480;2023-06-01T04:41:39;13.80;99.90
17891;DHT22;9071;48.220;14.480;2023-06-01T04:46:43;14.20;99.90
17891;DHT22;9071;48.220;14.480;2023-06-01T04:51:46;14.40;99.90
17891;DHT22;9071;48.220;14.480;2023-06-01T04:56:52;14.80;99.90
17891;DHT22;9071;48.220;14.480;2023-06-01T05:01:55;15.10;99.90
17891;DHT22;9071;48.220;14.480;2023-06-01T05:06:57;15.50;99.90
17891;DHT22;9071;48.220;14.480;2023-06-01T05:11:59;15.90;99.90
17891;DHT22;9071;48.220;14.480;2023-06-01T05:17:04;16.10;99.90
17891;DHT22;9071;48.220;14.480;2023-06-01T05:22:06;16.60;99.90
17891;DHT22;9071;48.220;14.480;2023-06-01T05:27:08;18.60;99.90
17891;DHT22;9071;48.220;14.480;2023-06-01T05:32:11;21.40;99.90
17891;DHT22;9071;48.220;14.480;2023-06-01T05:37:14;23.60;99.90
17891;DHT22;9071;48.220;14.480;2023-06-01T05:42:16;25.40;99.90
17891;DHT22;9071;48.220;14.480;2023-06-01T05:47:19;26.20;99.90
17891;DHT22;9071;48.220;14.480;2023-06-01T05:52:22;27.00;99.90
17891;DHT22;9071;48.220;14.480;2023-06-01T05:57:24;27.60;99.90
17891;DHT22;9071;48.220;14.480;2023-06-01T06:02:28;27.80;99.90
17891;DHT22;9071;48.220;14.480;2023-06-01T06:07:30;28.40;99.90
17891;DHT22;9071;48.220;14.480;2023-06-01T06:12:32;28.90;99.90
17891;DHT22;9071;48.220;14.480;2023-06-01T06:17:35;29.10;99.90
17891;DHT22;9071;48.220;14.480;2023-06-01T06:22:37;29.30;99.90
17891;DHT22;9071;48.220;14.480;2023-06-01T06:27:40;28.60;99.90
17891;DHT22;9071;48.220;14.480;2023-06-01T06:32:43;29.10;99.90
17891;DHT22;9071;48.220;14.480;2023-06-01T06:37:45;27.50;99.90
17891;DHT22;9071;48.220;14.480;2023-06-01T06:42:47;28.70;99.90
17891;DHT22;9071;48.220;14.480;2023-06-01T06:47:52;27.90;99.90
17891;DHT22;9071;48.220;14.480;2023-06-01T06:52:54;28.30;99.90
17891;DHT22;9071;48.220;14.480;2023-06-01T06:57:56;29.50;99.90
17891;DHT22;9071;48.220;14.480;2023-06-01T07:03:00;30.50;99.90
17891;DHT22;9071;48.220;14.480;2023-06-01T07:08:02;31.20;99.50
17891;DHT22;9071;48.220;14.480;2023-06-01T07:13:04;32.10;98.60
17891;DHT22;9071;48.220;14.480;2023-06-01T07:18:07;32.00;97.30
17891;DHT22;9071;48.220;14.480;2023-06-01T07:23:09;31.70;97.80
17891;DHT22;9071;48.220;14.480;2023-06-01T07:28:13;32.00;98.60
17891;DHT22;9071;48.220;14.480;2023-06-01T07:33:17;32.70;97.50
17891;DHT22;9071;48.220;14.480;2023-06-01T07:38:19;33.50;98.10
17891;DHT22;9071;48.220;14.480;2023-06-01T07:43:23;33.50;95.70
17891;DHT22;9071;48.220;14.480;2023-06-01T07:48:26;32.30;95.80
17891;DHT22;9071;48.220;14.480;2023-06-01T07:53:28;31.60;96.50
17891;DHT22;9071;48.220;14.480;2023-06-01T07:58:31;31.60;97.20
17891;DHT22;9071;48.220;14.480;2023-06-01T08:03:34;31.70;96.90
17891;DHT22;9071;48.220;14.480;2023-06-01T08:08:36;30.10;97.90
17891;DHT22;9071;48.220;14.480;2023-06-01T08:13:38;30.20;98.10
17891;DHT22;9071;48.220;14.480;2023-06-01T08:18:43;27.80;99.50
17891;DHT22;9071;48.220;14.480;2023-06-01T08:23:45;26.20;99.90
17891;DHT22;9071;48.220;14.480;2023-06-01T08:28:48;25.30;99.90
17891;DHT22;9071;48.220;14.480;2023-06-01T08:33:54;25.00;99.90
17891;DHT22;9071;48.220;14.480;2023-06-01T08:38:57;25.00;99.90
17891;DHT22;9071;48.220;14.480;2023-06-01T08:44:02;24.80;99.90
17891;DHT22;9071;48.220;14.480;2023-06-01T08:49:07;24.60;99.90
17891;DHT22;9071;48.220;14.480;2023-06-01T08:54:11;24.90;99.90
17891;DHT22;9071;48.220;14.480;2023-06-01T08:59:13;25.10;99.90
17891;DHT22;9071;48.220;14.480;2023-06-01T09:04:16;25.00;99.90
17891;DHT22;9071;48.220;14.480;2023-06-01T09:09:18;24.60;99.90
17891;DHT22;9071;48.220;14.480;2023-06-01T09:14:21;25.00;99.90
17891;DHT22;9071;48.220;14.480;2023-06-01T09:19:41;25.40;99.90
17891;DHT22;9071;48.220;14.480;2023-06-01T09:24:55;25.40;99.90
17891;DHT22;9071;48.220;14.480;2023-06-01T09:29:58;25.50;99.90
17891;DHT22;9071;48.220;14.480;2023-06-01T09:35:02;25.50;99.90
17891;DHT22;9071;48.220;14.480;2023-06-01T09:40:17;24.90;99.90
17891;DHT22;9071;48.220;14.480;2023-06-01T09:45:20;24.70;99.90
17891;DHT22;9071;48.220;14.480;2023-06-01T09:50:34;25.00;99.90
17891;DHT22;9071;48.220;14.480;2023-06-01T09:55:55;25.40;99.90
17891;DHT22;9071;48.220;14.480;2023-06-01T10:00:59;25.40;99.90
17891;DHT22;9071;48.220;14.480;2023-06-01T10:06:04;25.50;99.90
17891;DHT22;9071;48.220;14.480;2023-06-01T10:11:07;25.10;99.90
17891;DHT22;9071;48.220;14.480;2023-06-01T10:16:10;25.60;99.90
17891;DHT22;9071;48.220;14.480;2023-06-01T10:21:14;25.70;99.90
17891;DHT22;9071;48.220;14.480;2023-06-01T10:26:18;26.30;99.90
17891;DHT22;9071;48.220;14.480;2023-06-01T10:31:35;26.30;99.90
17891;DHT22;9071;48.220;14.480;2023-06-01T10:37:13;26.40;99.90
17891;DHT22;9071;48.220;14.480;2023-06-01T10:42:39;26.50;99.80
17891;DHT22;9071;48.220;14.480;2023-06-01T10:47:46;26.70;99.90
17891;DHT22;9071;48.220;14.480;2023-06-01T10:52:50;26.80;99.90
17891;DHT22;9071;48.220;14.480;2023-06-01T10:58:20;26.20;99.90
17891;DHT22;9071;48.220;14.480;2023-06-01T11:03:43;26.50;99.90
17891;DHT22;9071;48.220;14.480;2023-06-01T11:08:56;26.80;99.90
17891;DHT22;9071;48.220;14.480;2023-06-01T11:14:10;27.00;99.90
17891;DHT22;9071;48.220;14.480;2023-06-01T11:19:17;27.40;99.90
17891;DHT22;9071;48.220;14.480;2023-06-01T11:24:23;27.10;99.30
17891;DHT22;9071;48.220;14.480;2023-06-01T11:29:25;27.20;98.70
17891;DHT22;9071;48.220;14.480;2023-06-01T11:34:31;27.00;99.90
17891;DHT22;9071;48.220;14.480;2023-06-01T11:39:36;27.00;99.80
17891;DHT22;9071;48.220;14.480;2023-06-01T11:44:40;27.20;99.90
17891;DHT22;9071;48.220;14.480;2023-06-01T11:49:43;26.90;97.40
17891;DHT22;9071;48.220;14.480;2023-06-01T11:54:49;26.90;98.20
17891;DHT22;9071;48.220;14.480;2023-06-01T11:59:52;26.90;97.30
17891;DHT22;9071;48.220;14.480;2023-06-01T12:04:55;27.20;96.90
17891;DHT22;9071;48.220;14.480;2023-06-01T12:09:59;27.40;98.50
17891;DHT22;9071;48.220;14.480;2023-06-01T12:15:02;27.40;96.50
17891;DHT22;9071;48.220;14.480;2023-06-01T12:20:06;27.50;96.90
17891;DHT22;9071;48.220;14.480;2023-06-01T12:25:11;27.40;97.40
17891;DHT22;9071;48.220;14.480;2023-06-01T12:30:22;27.20;98.70
17891;DHT22;9071;48.220;14.480;2023-06-01T12:35:24;27.50;96.70
17891;DHT22;9071;48.220;14.480;2023-06-01T12:40:28;27.60;97.60
17891;DHT22;9071;48.220;14.480;2023-06-01T12:45:36;27.50;97.70
17891;DHT22;9071;48.220;14.480;2023-06-01T12:50:44;27.60;96.60
17891;DHT22;9071;48.220;14.480;2023-06-01T12:55:48;27.70;94.60
17891;DHT22;9071;48.220;14.480;2023-06-01T13:00:50;27.80;96.10
17891;DHT22;9071;48.220;14.480;2023-06-01T13:05:52;27.60;96.20
17891;DHT22;9071;48.220;14.480;2023-06-01T13:10:56;27.70;96.10
17891;DHT22;9071;48.220;14.480;2023-06-01T13:15:58;27.70;98.50
17891;DHT22;9071;48.220;14.480;2023-06-01T13:21:00;27.80;97.50
17891;DHT22;9071;48.220;14.480;2023-06-01T13:26:04;28.10;96.50
17891;DHT22;9071;48.220;14.480;2023-06-01T13:31:08;28.30;96.20
17891;DHT22;9071;48.220;14.480;2023-06-01T13:36:10;28.20;95.20
17891;DHT22;9071;48.220;14.480;2023-06-01T13:41:14;28.20;96.60
17891;DHT22;9071;48.220;14.480;2023-06-01T13:46:16;28.30;94.50
17891;DHT22;9071;48.220;14.480;2023-06-01T13:51:19;28.40;94.80
17891;DHT22;9071;48.220;14.480;2023-06-01T13:56:23;28.50;96.80
17891;DHT22;9071;48.220;14.480;2023-06-01T14:01:25;28.60;97.10
17891;DHT22;9071;48.220;14.480;2023-06-01T14:06:27;28.60;96.00
17891;DHT22;9071;48.220;14.480;2023-06-01T14:11:31;28.60;95.90
17891;DHT22;9071;48.220;14.480;2023-06-01T14:16:33;28.70;96.70
17891;DHT22;9071;48.220;14.480;2023-06-01T14:21:35;28.70;95.90
17891;DHT22;9071;48.220;14.480;2023-06-01T14:26:40;28.50;95.40
17891;DHT22;9071;48.220;14.480;2023-06-01T14:31:42;28.50;95.00
17891;DHT22;9071;48.220;14.480;2023-06-01T14:36:44;28.40;95.80
17891;DHT22;9071;48.220;14.480;2023-06-01T14:41:47;28.50;97.70
17891;DHT22;9071;48.220;14.480;2023-06-01T14:46:49;28.30;97.50
17891;DHT22;9071;48.220;14.480;2023-06-01T14:51:51;28.40;96.60
17891;DHT22;9071;48.220;14.480;2023-06-01T14:56:55;28.50;97.20
17891;DHT22;9071;48.220;14.480;2023-06-01T15:01:57;28.20;99.30
17891;DHT22;9071;48.220;14.480;2023-06-01T15:07:01;28.20;97.40
17891;DHT22;9071;48.220;14.480;2023-06-01T15:12:06;28.10;95.90
17891;DHT22;9071;48.220;14.480;2023-06-01T15:17:09;27.90;96.70
17891;DHT22;9071;48.220;14.480;2023-06-01T15:22:11;27.80;96.80
17891;DHT22;9071;48.220;14.480;2023-06-01T15:27:15;27.80;96.50
17891;DHT22;9071;48.220;14.480;2023-06-01T15:32:17;28.00;96.60
17891;DHT22;9071;48.220;14.480;2023-06-01T15:37:19;28.10;97.80
17891;DHT22;9071;48.220;14.480;2023-06-01T15:42:23;28.00;98.50
17891;DHT22;9071;48.220;14.480;2023-06-01T15:47:25;27.80;98.80
17891;DHT22;9071;48.220;14.480;2023-06-01T15:52:27;27.60;98.00
17891;DHT22;9071;48.220;14.480;2023-06-01T15:57:30;27.20;98.10
17891;DHT22;9071;48.220;14.480;2023-06-01T16:02:32;27.00;98.30
17891;DHT22;9071;48.220;14.480;2023-06-01T16:07:34;27.10;98.40
17891;DHT22;9071;48.220;14.480;2023-06-01T16:12:38;27.10;99.90
17891;DHT22;9071;48.220;14.480;2023-06-01T16:17:40;27.00;98.60
17891;DHT22;9071;48.220;14.480;2023-06-01T16:22:42;27.00;99.20
17891;DHT22;9071;48.220;14.480;2023-06-01T16:27:46;26.90;99.60
17891;DHT22;9071;48.220;14.480;2023-06-01T16:32:48;26.90;99.20
17891;DHT22;9071;48.220;14.480;2023-06-01T16:37:50;26.90;99.40
17891;DHT22;9071;48.220;14.480;2023-06-01T16:42:54;26.60;98.70
17891;DHT22;9071;48.220;14.480;2023-06-01T16:47:56;26.50;99.70
17891;DHT22;9071;48.220;14.480;2023-06-01T16:52:58;26.40;99.90
17891;DHT22;9071;48.220;14.480;2023-06-01T16:58:01;26.30;99.90
17891;DHT22;9071;48.220;14.480;2023-06-01T17:03:04;26.20;99.90
17891;DHT22;9071;48.220;14.480;2023-06-01T17:08:06;26.00;99.90
17891;DHT22;9071;48.220;14.480;2023-06-01T17:13:12;25.90;99.10
17891;DHT22;9071;48.220;14.480;2023-06-01T17:18:14;25.80;99.90
17891;DHT22;9071;48.220;14.480;2023-06-01T17:23:16;25.70;99.90
17891;DHT22;9071;48.220;14.480;2023-06-01T17:28:19;25.70;99.90
17891;DHT22;9071;48.220;14.480;2023-06-01T17:33:21;25.60;99.90
17891;DHT22;9071;48.220;14.480;2023-06-01T17:38:23;25.50;99.70
17891;DHT22;9071;48.220;14.480;2023-06-01T17:43:27;25.50;99.90
17891;DHT22;9071;48.220;14.480;2023-06-01T17:48:29;25.50;99.90
17891;DHT22;9071;48.220;14.480;2023-06-01T17:53:31;25.40;99.90
17891;DHT22;9071;48.220;14.480;2023-06-01T17:58:35;25.30;99.90
17891;DHT22;9071;48.220;14.480;2023-06-01T18:03:37;25.20;99.90
17891;DHT22;9071;48.220;14.480;2023-06-01T18:08:39;25.10;99.90
17891;DHT22;9071;48.220;14.480;2023-06-01T18:13:42;24.90;99.90
17891;DHT22;9071;48.220;14.480;2023-06-01T18:18:44;24.90;99.90
17891;DHT22;9071;48.220;14.480;2023-06-01T18:23:47;24.80;99.90
17891;DHT22;9071;48.220;14.480;2023-06-01T18:28:51;24.60;99.90
17891;DHT22;9071;48.220;14.480;2023-06-01T18:33:53;24.40;99.90
17891;DHT22;9071;48.220;14.480;2023-06-01T18:38:55;24.20;99.90
17891;DHT22;9071;48.220;14.480;2023-06-01T18:43:59;24.00;99.90
17891;DHT22;9071;48.220;14.480;2023-06-01T18:49:01;23.70;99.90
17891;DHT22;9071;48.220;14.480;2023-06-01T18:54:03;23.30;99.90
17891;DHT22;9071;48.220;14.480;2023-06-01T18:59:09;23.00;99.90
17891;DHT22;9071;48.220;14.480;2023-06-01T19:04:11;22.80;99.90
17891;DHT22;9071;48.220;14.480;2023-06-01T19:09:15;22.70;99.90
17891;DHT22;9071;48.220;14.480;2023-06-01T19:14:19;22.60;99.90
17891;DHT22;9071;48.220;14.480;2023-06-01T19:19:23;22.40;99.90
17891;DHT22;9071;48.220;14.480;2023-06-01T19:24:25;22.40;99.90
17891;DHT22;9071;48.220;14.480;2023-06-01T19:29:34;22.10;99.90
17891;DHT22;9071;48.220;14.480;2023-06-01T19:34:37;21.60;99.90
17891;DHT22;9071;48.220;14.480;2023-06-01T19:39:40;21.40;99.90
17891;DHT22;9071;48.220;14.480;2023-06-01T19:44:44;21.40;99.90
17891;DHT22;9071;48.220;14.480;2023-06-01T19:49:46;21.30;99.90
17891;DHT22;9071;48.220;14.480;2023-06-01T19:54:48;21.40;99.90
17891;DHT22;9071;48.220;14.480;2023-06-01T19:59:52;21.10;99.90
17891;DHT22;9071;48.220;14.480;2023-06-01T20:04:54;20.80;99.90
17891;DHT22;9071;48.220;14.480;2023-06-01T20:09:58;20.50;99.90
17891;DHT22;9071;48.220;14.480;2023-06-01T20:15:02;20.40;99.90
17891;DHT22;9071;48.220;14.480;2023-06-01T20:20:05;20.30;99.90
17891;DHT22;9071;48.220;14.480;2023-06-01T20:25:07;20.00;99.90
17891;DHT22;9071;48.220;14.480;2023-06-01T20:36:02;19.60;99.90
17891;DHT22;9071;48.220;14.480;2023-06-01T20:41:15;19.40;99.90
17891;DHT22;9071;48.220;14.480;2023-06-01T20:46:26;19.40;99.90
17891;DHT22;9071;48.220;14.480;2023-06-01T20:51:30;19.40;99.90
17891;DHT22;9071;48.220;14.480;2023-06-01T20:56:34;19.10;99.90
17891;DHT22;9071;48.220;14.480;2023-06-01T21:01:39;19.00;99.90
17891;DHT22;9071;48.220;14.480;2023-06-01T21:06:41;18.90;99.90
17891;DHT22;9071;48.220;14.480;2023-06-01T21:11:44;18.90;99.90
17891;DHT22;9071;48.220;14.480;2023-06-01T21:16:50;18.80;99.90
17891;DHT22;9071;48.220;14.480;2023-06-01T21:21:52;18.70;99.90
17891;DHT22;9071;48.220;14.480;2023-06-01T21:26:54;18.70;99.90
17891;DHT22;9071;48.220;14.480;2023-06-01T21:31:58;18.70;99.90
17891;DHT22;9071;48.220;14.480;2023-06-01T21:37:00;18.50;99.90
17891;DHT22;9071;48.220;14.480;2023-06-01T21:42:03;18.30;99.90
17891;DHT22;9071;48.220;14.480;2023-06-01T21:47:07;18.10;99.90
17891;DHT22;9071;48.220;14.480;2023-06-01T21:52:13;17.90;99.90
17891;DHT22;9071;48.220;14.480;2023-06-01T21:57:16;17.60;99.90
17891;DHT22;9071;48.220;14.480;2023-06-01T22:02:19;17.40;99.90
17891;DHT22;9071;48.220;14.480;2023-06-01T22:07:22;17.20;99.90
17891;DHT22;9071;48.220;14.480;2023-06-01T22:12:27;17.00;99.90
17891;DHT22;9071;48.220;14.480;2023-06-01T22:17:31;16.80;99.90
17891;DHT22;9071;48.220;14.480;2023-06-01T22:22:34;16.70;99.90
17891;DHT22;9071;48.220;14.480;2023-06-01T22:27:36;16.60;99.90
17891;DHT22;9071;48.220;14.480;2023-06-01T22:32:40;16.40;99.90
17891;DHT22;9071;48.220;14.480;2023-06-01T22:37:42;16.20;99.90
17891;DHT22;9071;48.220;14.480;2023-06-01T22:42:45;16.10;99.90
17891;DHT22;9071;48.220;14.480;2023-06-01T22:47:49;16.00;99.90
17891;DHT22;9071;48.220;14.480;2023-06-01T22:52:51;16.00;99.90
17891;DHT22;9071;48.220;14.480;2023-06-01T22:57:54;15.80;99.90
17891;DHT22;9071;48.220;14.480;2023-06-01T23:02:57;15.80;99.90
17891;DHT22;9071;48.220;14.480;2023-06-01T23:07:59;15.80;99.90
17891;DHT22;9071;48.220;14.480;2023-06-01T23:13:12;15.70;99.90
17891;DHT22;9071;48.220;14.480;2023-06-01T23:18:16;15.60;99.90
17891;DHT22;9071;48.220;14.480;2023-06-01T23:23:18;15.50;99.90
17891;DHT22;9071;48.220;14.480;2023-06-01T23:28:20;15.40;99.90
17891;DHT22;9071;48.220;14.480;2023-06-01T23:33:24;15.30;99.90
17891;DHT22;9071;48.220;14.480;2023-06-01T23:38:30;15.40;99.90
17891;DHT22;9071;48.220;14.480;2023-06-01T23:43:33;15.40;99.90
17891;DHT22;9071;48.220;14.480;2023-06-01T23:48:36;15.40;99.90
17891;DHT22;9071;48.220;14.480;2023-06-01T23:53:39;15.40;99.90
17891;DHT22;9071;48.220;14.480;2023-06-01T23:58:41;15.40;99.90
